createdAt,value
2023-05-11T00:01:06.916Z,100144.91
2023-05-11T00:03:36.213Z,100139.53
2023-05-11T00:06:03.294Z,100143.47
2023-05-11T00:08:30.386Z,100137.09
2023-05-11T00:11:00.789Z,100134.66
2023-05-11T00:13:28.867Z,100138.25
2023-05-11T00:15:55.906Z,100135.97
2023-05-11T00:18:23.146Z,100133.03
2023-05-11T00:20:50.298Z,100127.13
2023-05-11T00:23:17.215Z,100133.97
2023-05-11T00:25:44.239Z,100137.56
2023-05-11T00:28:11.264Z,100134.44
2023-05-11T00:30:41.236Z,100137.88
2023-05-11T00:33:08.227Z,100133.63
2023-05-11T00:35:35.362Z,100137.88
2023-05-11T00:38:02.249Z,100129.41
2023-05-11T00:40:33.373Z,100131.81
2023-05-11T00:43:00.332Z,100132.97
2023-05-11T00:45:27.447Z,100126.94
2023-05-11T00:47:54.519Z,100123.84
2023-05-11T00:50:21.538Z,100124.47
2023-05-11T00:52:49.799Z,100124.19
2023-05-11T00:55:22.578Z,100127.75
2023-05-11T00:57:49.476Z,100128.25
2023-05-11T01:00:16.934Z,100121.25
2023-05-11T01:02:45.708Z,100124.03
2023-05-11T01:05:12.937Z,100133.28
2023-05-11T01:07:56.029Z,100131.31
2023-05-11T01:11:03.024Z,100129.06
2023-05-11T01:13:40.406Z,100127.09
2023-05-11T01:16:20.005Z,100125.28
2023-05-11T01:19:24.638Z,100129.19
2023-05-11T01:21:52.108Z,100124.31
2023-05-11T01:24:52.442Z,100127.91
2023-05-11T01:28:04.414Z,100133.25
2023-05-11T01:30:44.585Z,100125.78
2023-05-11T01:33:14.167Z,100129.69
2023-05-11T01:35:52.955Z,100127.75
2023-05-11T01:38:24.522Z,100119.53
2023-05-11T01:40:56.713Z,100123.66
2023-05-11T01:43:26.813Z,100122.81
2023-05-11T01:46:00.549Z,100127.66
2023-05-11T01:48:32.046Z,100131.06
2023-05-11T01:51:03.143Z,100126.81
2023-05-11T01:53:34.940Z,100126.88
2023-05-11T01:56:04.140Z,100127.91
2023-05-11T01:58:32.961Z,100124.75
2023-05-11T02:01:03.238Z,100129.63
2023-05-11T02:03:33.218Z,100135.56
2023-05-11T02:06:01.165Z,100127.84
2023-05-11T02:08:32.733Z,100137.16
2023-05-11T02:11:02.641Z,100131.50
2023-05-11T02:13:30.604Z,100127.47
2023-05-11T02:15:59.128Z,100132.50
2023-05-11T02:18:28.479Z,100127.91
2023-05-11T02:20:59.366Z,100131.84
2023-05-11T02:23:31.273Z,100126.72
2023-05-11T02:25:59.175Z,100129.66
2023-05-11T02:28:26.080Z,100127.22
2023-05-11T02:31:01.057Z,100127.47
2023-05-11T02:33:35.462Z,100125.53
2023-05-11T02:36:03.689Z,100127.53
2023-05-11T02:38:35.428Z,100132.00
2023-05-11T02:41:12.463Z,100128.56
2023-05-11T02:43:47.684Z,100127.19
2023-05-11T02:46:20.570Z,100127.56
2023-05-11T02:48:54.468Z,100130.69
2023-05-11T02:51:31.793Z,100133.06
2023-05-11T02:54:00.947Z,100129.16
2023-05-11T02:56:29.341Z,100133.72
2023-05-11T02:58:56.354Z,100136.56
2023-05-11T03:01:24.371Z,100128.94
2023-05-11T03:03:51.815Z,100125.56
2023-05-11T03:06:18.744Z,100128.84
2023-05-11T03:08:46.114Z,100128.50
2023-05-11T03:11:15.433Z,100126.59
2023-05-11T03:13:44.401Z,100119.84
2023-05-11T03:16:13.128Z,100136.47
2023-05-11T03:18:40.904Z,100131.09
2023-05-11T03:21:08.473Z,100134.69
2023-05-11T03:23:36.936Z,100130.19
2023-05-11T03:26:06.444Z,100132.31
2023-05-11T03:28:35.065Z,100131.28
2023-05-11T03:31:02.008Z,100132.25
2023-05-11T03:33:30.069Z,100124.19
2023-05-11T03:35:59.694Z,100125.06
2023-05-11T03:38:29.307Z,100119.06
2023-05-11T03:40:58.270Z,100127.53
2023-05-11T03:43:29.160Z,100124.75
2023-05-11T03:45:58.010Z,100114.72
2023-05-11T03:48:25.391Z,100122.53
2023-05-11T03:50:53.644Z,100125.78
2023-05-11T03:53:20.875Z,100110.75
2023-05-11T03:55:47.842Z,100108.66
2023-05-11T03:58:15.097Z,100107.84
2023-05-11T04:00:42.800Z,100107.59
2023-05-11T04:03:10.380Z,100122.28
2023-05-11T04:05:37.353Z,100116.50
2023-05-11T04:08:05.957Z,100108.47
2023-05-11T04:10:33.276Z,100111.72
2023-05-11T04:13:00.241Z,100109.25
2023-05-11T04:15:27.212Z,100113.66
2023-05-11T04:17:55.439Z,100119.66
2023-05-11T04:20:22.386Z,100119.22
2023-05-11T04:22:49.278Z,100118.94
2023-05-11T04:25:16.633Z,100114.00
2023-05-11T04:27:43.568Z,100117.00
2023-05-11T04:30:11.036Z,100112.28
2023-05-11T04:32:37.963Z,100114.16
2023-05-11T04:35:05.303Z,100114.66
2023-05-11T04:37:33.302Z,100104.78
2023-05-11T04:40:00.185Z,100107.31
2023-05-11T04:42:27.084Z,100112.91
2023-05-11T04:44:56.070Z,100116.06
2023-05-11T04:47:24.012Z,100110.44
2023-05-11T04:49:51.932Z,100120.75
2023-05-11T04:52:18.872Z,100116.50
2023-05-11T04:54:46.894Z,100119.53
2023-05-11T04:57:13.834Z,100117.00
2023-05-11T04:59:41.873Z,100124.59
2023-05-11T05:02:08.906Z,100116.63
2023-05-11T05:04:36.589Z,100118.31
2023-05-11T05:07:07.432Z,100121.44
2023-05-11T05:09:34.331Z,100119.50
2023-05-11T05:12:01.664Z,100117.91
2023-05-11T05:14:28.736Z,100123.09
2023-05-11T05:16:55.670Z,100111.59
2023-05-11T05:19:23.292Z,100111.91
2023-05-11T05:21:50.193Z,100114.97
2023-05-11T05:24:20.241Z,100124.63
2023-05-11T05:26:47.149Z,100118.56
2023-05-11T05:29:14.088Z,100119.38
2023-05-11T05:31:40.976Z,100133.25
2023-05-11T05:34:08.000Z,100125.00
2023-05-11T05:36:34.905Z,100132.66
2023-05-11T05:39:03.759Z,100133.50
2023-05-11T05:41:30.656Z,100133.84
2023-05-11T05:43:58.609Z,100141.16
2023-05-11T05:46:27.600Z,100137.91
2023-05-11T05:48:54.499Z,100138.91
2023-05-11T05:51:22.540Z,100139.41
2023-05-11T05:53:51.593Z,100143.16
2023-05-11T05:56:18.452Z,100138.56
2023-05-11T05:58:45.349Z,100139.56
2023-05-11T06:01:12.338Z,100141.53
2023-05-11T06:03:40.126Z,100144.16
2023-05-11T06:06:07.816Z,100145.75
2023-05-11T06:08:34.836Z,100155.25
2023-05-11T06:11:09.906Z,100147.75
2023-05-11T06:13:36.941Z,100151.69
2023-05-11T06:16:04.367Z,100153.81
2023-05-11T06:18:31.383Z,100157.84
2023-05-11T06:20:59.660Z,100163.69
2023-05-11T06:23:26.702Z,100159.66
2023-05-11T06:25:53.657Z,100147.91
2023-05-11T06:28:24.336Z,100165.03
2023-05-11T06:30:51.346Z,100166.38
2023-05-11T06:33:18.226Z,100165.38
2023-05-11T06:35:47.266Z,100156.09
2023-05-11T06:38:14.246Z,100154.44
2023-05-11T06:40:42.447Z,100167.34
2023-05-11T06:43:09.359Z,100162.59
2023-05-11T06:45:41.847Z,100152.28
2023-05-11T06:48:08.900Z,100148.47
2023-05-11T06:50:35.886Z,100152.91
2023-05-11T06:53:02.878Z,100149.81
2023-05-11T06:55:34.093Z,100142.56
2023-05-11T06:58:00.988Z,100151.03
2023-05-11T07:00:28.024Z,100137.34
2023-05-11T07:02:54.986Z,100138.06
2023-05-11T07:05:21.911Z,100146.47
2023-05-11T07:07:48.869Z,100145.34
2023-05-11T07:10:18.065Z,100144.22
2023-05-11T07:12:46.240Z,100143.09
2023-05-11T07:15:15.304Z,100164.31
2023-05-11T07:17:46.336Z,100141.72
2023-05-11T07:20:15.482Z,100149.28
2023-05-11T07:22:42.450Z,100143.97
2023-05-11T07:25:12.660Z,100141.25
2023-05-11T07:27:39.549Z,100152.06
2023-05-11T07:30:07.419Z,100146.16
2023-05-11T07:32:34.732Z,100150.47
2023-05-11T07:35:02.714Z,100159.63
2023-05-11T07:37:29.602Z,100153.16
2023-05-11T07:40:00.666Z,100156.75
2023-05-11T07:42:27.600Z,100146.41
2023-05-11T07:44:54.473Z,100130.91
2023-05-11T07:47:21.502Z,100131.03
2023-05-11T07:49:48.668Z,100124.25
2023-05-11T07:52:15.729Z,100129.38
2023-05-11T07:54:42.847Z,100128.56
2023-05-11T07:57:13.965Z,100126.25
2023-05-11T07:59:41.177Z,100129.38
2023-05-11T08:02:11.465Z,100130.94
2023-05-11T08:04:40.681Z,100131.38
2023-05-11T08:07:08.848Z,100123.16
2023-05-11T08:09:35.814Z,100130.75
2023-05-11T08:12:03.726Z,100134.63
2023-05-11T08:14:30.661Z,100132.66
2023-05-11T08:16:57.765Z,100129.22
2023-05-11T08:19:24.704Z,100139.06
2023-05-11T08:21:51.680Z,100144.53
2023-05-11T08:24:18.675Z,100151.59
2023-05-11T08:26:45.582Z,100175.50
2023-05-11T08:29:13.533Z,100180.38
2023-05-11T08:31:40.616Z,100158.44
2023-05-11T08:36:41.215Z,100160.38
2023-05-11T08:39:08.252Z,100158.63
2023-05-11T08:41:35.571Z,100155.88
2023-05-11T08:44:04.970Z,100152.53
2023-05-11T08:46:36.671Z,100146.84
2023-05-11T08:49:03.915Z,100156.91
2023-05-11T08:51:31.161Z,100158.75
2023-05-11T08:53:59.739Z,100155.47
2023-05-11T08:56:29.795Z,100146.13
2023-05-11T08:58:57.740Z,100152.84
2023-05-11T09:01:29.235Z,100164.13
2023-05-11T09:03:58.202Z,100155.19
2023-05-11T09:06:27.740Z,100171.50
2023-05-11T09:08:55.196Z,100161.56
2023-05-11T09:11:22.933Z,100142.38
2023-05-11T09:13:50.981Z,100145.53
2023-05-11T09:16:33.055Z,100153.56
2023-05-11T09:19:05.378Z,100152.78
2023-05-11T09:21:34.258Z,100143.78
2023-05-11T09:24:03.530Z,100139.56
2023-05-11T09:26:34.248Z,100139.94
2023-05-11T09:29:03.592Z,100138.66
2023-05-11T09:31:43.787Z,100148.53
2023-05-11T09:34:21.760Z,100137.09
2023-05-11T09:36:54.712Z,100128.56
2023-05-11T09:39:44.561Z,100144.41
2023-05-11T09:42:23.168Z,100141.59
2023-05-11T09:44:53.007Z,100125.56
2023-05-11T09:47:22.503Z,100134.00
2023-05-11T09:49:49.663Z,100126.09
2023-05-11T09:52:18.616Z,100128.94
2023-05-11T09:54:52.544Z,100120.41
2023-05-11T09:57:24.680Z,100120.09
2023-05-11T09:59:52.436Z,100115.41
2023-05-11T10:02:24.047Z,100125.03
2023-05-11T10:04:53.606Z,100123.41
2023-05-11T10:07:35.301Z,100120.16
2023-05-11T10:10:07.573Z,100129.78
2023-05-11T10:12:39.270Z,100119.53
2023-05-11T10:15:10.743Z,100127.91
2023-05-11T10:17:38.127Z,100136.47
2023-05-11T10:20:07.376Z,100131.72
2023-05-11T10:22:34.681Z,100117.19
2023-05-11T10:25:03.043Z,100108.72
2023-05-11T10:27:31.442Z,100100.72
2023-05-11T10:29:59.357Z,100100.63
2023-05-11T10:32:28.684Z,100112.38
2023-05-11T10:34:57.046Z,100103.38
2023-05-11T10:37:24.427Z,100096.34
2023-05-11T10:39:54.623Z,100097.00
2023-05-11T10:42:56.494Z,100096.94
2023-05-11T10:45:47.108Z,100086.00
2023-05-11T10:48:48.423Z,100082.19
2023-05-11T10:51:52.050Z,100087.31
2023-05-11T10:54:50.469Z,100084.41
2023-05-11T10:57:54.611Z,100082.31
2023-05-11T11:01:18.424Z,100077.19
2023-05-11T11:04:05.472Z,100078.00
2023-05-11T11:06:40.363Z,100085.16
2023-05-11T11:09:15.751Z,100072.34
2023-05-11T11:11:46.443Z,100072.13
2023-05-11T11:14:16.736Z,100070.13
2023-05-11T11:17:20.846Z,100063.38
2023-05-11T11:19:47.851Z,100071.88
2023-05-11T11:22:38.121Z,100071.97
2023-05-11T11:25:09.980Z,100069.38
2023-05-11T11:27:49.000Z,100063.50
2023-05-11T11:30:26.964Z,100047.91
2023-05-11T11:33:15.067Z,100050.50
2023-05-11T11:35:42.485Z,100048.47
2023-05-11T11:38:21.535Z,100041.63
2023-05-11T11:40:52.848Z,100042.41
2023-05-11T11:43:25.997Z,100045.38
2023-05-11T11:45:57.171Z,100044.00
2023-05-11T11:48:37.438Z,100051.59
2023-05-11T11:51:13.036Z,100052.41
2023-05-11T11:53:43.774Z,100037.94
2023-05-11T11:56:17.155Z,100030.25
2023-05-11T11:58:45.138Z,100029.84
2023-05-11T12:01:25.793Z,100036.16
2023-05-11T12:04:05.160Z,100038.53
2023-05-11T12:06:40.967Z,100043.66
2023-05-11T12:09:08.412Z,100051.38
2023-05-11T12:11:38.386Z,100049.06
2023-05-11T12:14:06.303Z,100082.78
2023-05-11T12:16:34.306Z,100065.44
2023-05-11T12:19:02.218Z,100063.91
2023-05-11T12:21:32.221Z,100052.91
2023-05-11T12:24:06.341Z,100051.69
2023-05-11T12:26:37.215Z,100047.63
2023-05-11T12:29:13.866Z,100044.19
2023-05-11T12:31:45.631Z,100045.03
2023-05-11T12:34:21.971Z,100051.25
2023-05-11T12:36:53.813Z,100028.81
2023-05-11T12:39:27.879Z,100028.31
2023-05-11T12:41:56.620Z,100032.38
2023-05-11T12:44:26.745Z,100034.41
2023-05-11T12:46:54.222Z,100036.28
2023-05-11T12:49:25.829Z,100030.47
2023-05-11T12:51:57.350Z,100030.50
2023-05-11T12:54:33.078Z,100016.69
2023-05-11T12:57:02.714Z,100023.22
2023-05-11T12:59:41.721Z,100011.13
2023-05-11T13:02:23.507Z,99990.09
2023-05-11T13:04:50.571Z,99989.16
2023-05-11T13:07:28.352Z,99996.44
2023-05-11T13:10:00.451Z,99993.31
2023-05-11T13:12:31.746Z,99996.25
2023-05-11T13:15:14.002Z,99999.34
2023-05-11T13:17:45.129Z,99972.22
2023-05-11T13:20:32.889Z,99995.28
2023-05-11T13:23:10.779Z,99994.31
2023-05-11T13:25:48.227Z,99977.56
2023-05-11T13:28:21.305Z,99957.84
2023-05-11T13:30:48.741Z,99960.47
2023-05-11T13:33:15.892Z,99963.38
2023-05-11T13:35:44.066Z,99959.50
2023-05-11T13:38:13.145Z,99965.00
2023-05-11T13:40:41.191Z,99962.72
2023-05-11T13:43:09.177Z,99956.66
2023-05-11T13:45:41.124Z,99976.53
2023-05-11T13:48:08.419Z,99978.50
2023-05-11T13:50:35.485Z,99971.00
2023-05-11T13:53:02.742Z,99962.56
2023-05-11T13:55:30.162Z,99964.63
2023-05-11T13:57:58.288Z,99960.09
2023-05-11T14:00:25.485Z,99966.72
2023-05-11T14:02:53.071Z,99960.47
2023-05-11T14:05:20.446Z,99948.75
2023-05-11T14:07:49.040Z,99942.28
2023-05-11T14:10:19.241Z,99943.31
2023-05-11T14:12:48.295Z,99960.06
2023-05-11T14:15:16.363Z,99955.56
2023-05-11T14:17:43.912Z,99951.16
2023-05-11T14:20:13.162Z,99965.34
2023-05-11T14:22:41.401Z,99963.50
2023-05-11T14:25:08.857Z,99969.66
2023-05-11T14:27:44.933Z,99971.75
2023-05-11T14:30:12.292Z,99968.63
2023-05-11T14:32:39.445Z,99961.91
2023-05-11T14:35:06.760Z,99963.28
2023-05-11T14:37:34.117Z,99965.16
2023-05-11T14:40:01.295Z,99955.56
2023-05-11T14:42:29.665Z,99946.75
2023-05-11T14:44:57.652Z,99944.66
2023-05-11T14:47:25.195Z,99958.47
2023-05-11T14:49:52.182Z,99947.75
2023-05-11T14:52:20.093Z,99941.47
2023-05-11T14:54:48.089Z,99938.44
2023-05-11T14:57:15.086Z,99938.41
2023-05-11T14:59:55.465Z,99947.00
2023-05-11T15:02:26.466Z,99954.78
2023-05-11T15:04:53.458Z,99941.06
2023-05-11T15:07:20.522Z,99935.41
2023-05-11T15:09:47.430Z,99934.78
2023-05-11T15:12:15.404Z,99945.66
2023-05-11T15:14:43.429Z,99962.47
2023-05-11T15:17:10.521Z,99973.53
2023-05-11T15:19:37.492Z,99966.75
2023-05-11T15:22:05.477Z,99967.88
2023-05-11T15:24:33.851Z,99964.28
2023-05-11T15:27:00.789Z,99960.03
2023-05-11T15:29:27.712Z,99963.31
2023-05-11T15:31:54.618Z,99965.16
2023-05-11T15:34:21.786Z,99961.28
2023-05-11T15:36:49.819Z,99954.47
2023-05-11T15:39:19.861Z,99957.50
2023-05-11T15:41:46.899Z,99951.19
2023-05-11T15:44:13.816Z,99960.50
2023-05-11T15:46:40.765Z,99954.00
2023-05-11T15:49:07.703Z,99953.72
2023-05-11T15:51:34.621Z,99930.50
2023-05-11T15:54:01.522Z,99922.03
2023-05-11T15:56:28.472Z,99924.88
2023-05-11T15:58:55.462Z,99931.53
2023-05-11T16:01:22.479Z,99927.88
2023-05-11T16:03:49.490Z,99933.94
2023-05-11T16:06:16.389Z,99932.03
2023-05-11T16:08:44.473Z,99944.31
2023-05-11T16:11:13.506Z,99928.25
2023-05-11T16:13:40.440Z,99941.28
2023-05-11T16:16:07.450Z,99954.09
2023-05-11T16:18:34.847Z,99943.31
2023-05-11T16:21:04.132Z,99940.47
2023-05-11T16:23:31.104Z,99944.78
2023-05-11T16:25:58.140Z,99935.13
2023-05-11T16:28:25.168Z,99941.69
2023-05-11T16:30:52.149Z,99953.22
2023-05-11T16:33:19.994Z,99945.47
2023-05-11T16:35:46.939Z,99941.09
2023-05-11T16:38:22.303Z,99949.19
2023-05-11T16:40:50.341Z,99957.06
2023-05-11T16:43:19.281Z,99952.75
2023-05-11T16:45:46.227Z,99949.41
2023-05-11T16:48:13.229Z,99941.47
2023-05-11T16:50:40.136Z,99953.25
2023-05-11T16:53:09.142Z,99949.81
2023-05-11T16:55:37.159Z,99967.22
2023-05-11T16:58:04.040Z,99970.63
2023-05-11T17:00:34.100Z,99954.22
2023-05-11T17:03:01.337Z,99962.69
2023-05-11T17:05:28.468Z,99962.16
2023-05-11T17:07:55.355Z,99950.66
2023-05-11T17:10:22.404Z,99953.59
2023-05-11T17:12:49.325Z,99960.19
2023-05-11T17:15:16.282Z,99973.19
2023-05-11T17:17:43.271Z,99985.50
2023-05-11T17:20:11.072Z,99984.50
2023-05-11T17:22:38.376Z,99976.63
2023-05-11T17:25:06.324Z,99981.72
2023-05-11T17:27:37.150Z,99990.97
2023-05-11T17:30:05.875Z,99981.41
2023-05-11T17:32:33.366Z,99990.22
2023-05-11T17:35:01.260Z,99991.47
2023-05-11T17:37:32.107Z,99990.38
2023-05-11T17:40:01.122Z,99988.38
2023-05-11T17:42:28.538Z,99981.25
2023-05-11T17:44:56.117Z,99989.81
2023-05-11T17:47:23.070Z,99997.53
2023-05-11T17:49:50.510Z,100028.72
2023-05-11T17:52:17.521Z,100029.09
2023-05-11T17:54:45.496Z,100013.47
2023-05-11T17:57:13.585Z,100026.31
2023-05-11T17:59:41.602Z,100041.50
2023-05-11T18:02:08.997Z,100050.13
2023-05-11T18:04:35.981Z,100046.69
2023-05-11T18:07:03.962Z,100055.88
2023-05-11T18:09:30.849Z,100055.09
2023-05-11T18:11:57.810Z,100048.25
2023-05-11T18:14:25.867Z,100058.69
2023-05-11T18:16:54.795Z,100050.00
2023-05-11T18:19:22.810Z,100049.78
2023-05-11T18:21:51.393Z,100049.88
2023-05-11T18:24:21.367Z,100052.78
2023-05-11T18:26:48.260Z,100054.63
2023-05-11T18:29:19.260Z,100058.88
2023-05-11T18:31:50.892Z,100051.72
2023-05-11T18:34:18.091Z,100057.03
2023-05-11T18:36:44.992Z,100051.47
2023-05-11T18:39:12.635Z,100041.66
2023-05-11T18:41:41.228Z,100057.06
2023-05-11T18:44:08.288Z,100048.25
2023-05-11T18:46:35.540Z,100049.56
2023-05-11T18:49:02.693Z,100058.66
2023-05-11T18:51:30.061Z,100064.44
2023-05-11T18:53:58.032Z,100065.94
2023-05-11T18:56:25.485Z,100065.97
2023-05-11T18:58:53.517Z,100066.63
2023-05-11T19:01:25.865Z,100067.84
2023-05-11T19:04:00.288Z,100065.72
2023-05-11T19:06:28.183Z,100066.69
2023-05-11T19:08:55.819Z,100063.75
2023-05-11T19:11:22.935Z,100082.03
2023-05-11T19:13:50.502Z,100083.53
2023-05-11T19:16:19.522Z,100074.88
2023-05-11T19:18:46.676Z,100077.66
2023-05-11T19:21:13.705Z,100078.31
2023-05-11T19:23:41.761Z,100080.78
2023-05-11T19:26:08.690Z,100079.63
2023-05-11T19:28:35.597Z,100086.84
2023-05-11T19:31:05.252Z,100075.91
2023-05-11T19:33:33.114Z,100085.06
2023-05-11T19:36:00.055Z,100079.69
2023-05-11T19:38:27.490Z,100081.13
2023-05-11T19:40:54.638Z,100087.50
2023-05-11T19:43:23.719Z,100087.34
2023-05-11T19:45:51.731Z,100099.75
2023-05-11T19:48:19.011Z,100096.34
2023-05-11T19:50:45.908Z,100100.41
2023-05-11T19:53:12.832Z,100097.31
2023-05-11T19:55:42.203Z,100100.91
2023-05-11T19:58:11.133Z,100103.66
2023-05-11T20:00:40.919Z,100103.16
2023-05-11T20:03:08.462Z,100112.78
2023-05-11T20:05:35.635Z,100106.09
2023-05-11T20:08:02.844Z,100116.69
2023-05-11T20:10:29.781Z,100117.03
2023-05-11T20:12:57.674Z,100110.81
2023-05-11T20:15:24.535Z,100122.41
2023-05-11T20:17:52.070Z,100115.41
2023-05-11T20:20:19.213Z,100118.78
2023-05-11T20:22:46.336Z,100112.28
2023-05-11T20:25:18.388Z,100112.31
2023-05-11T20:27:46.533Z,100113.44
2023-05-11T20:30:14.047Z,100119.81
2023-05-11T20:34:06.741Z,100116.69
2023-05-11T20:35:28.274Z,100119.63
2023-05-11T20:37:55.481Z,100114.75
2023-05-11T20:40:22.432Z,100115.34
2023-05-11T20:42:49.439Z,100111.94
2023-05-11T20:45:16.557Z,100115.03
2023-05-11T20:47:45.715Z,100116.81
2023-05-11T20:50:15.126Z,100115.03
2023-05-11T20:52:42.144Z,100117.28
2023-05-11T20:55:09.078Z,100111.44
2023-05-11T20:57:36.017Z,100111.41
2023-05-11T21:00:04.499Z,100115.97
2023-05-11T21:02:32.123Z,100107.97
2023-05-11T21:05:02.183Z,100106.84
2023-05-11T21:07:30.224Z,100110.56
2023-05-11T21:09:57.205Z,100103.41
2023-05-11T21:12:25.171Z,100105.38
2023-05-11T21:14:52.089Z,100107.97
2023-05-11T21:17:20.145Z,100102.91
2023-05-11T21:19:47.155Z,100100.47
2023-05-11T21:22:14.061Z,100102.75
2023-05-11T21:24:42.801Z,100097.75
2023-05-11T21:27:11.321Z,100103.25
2023-05-11T21:29:38.315Z,100102.59
2023-05-11T21:32:05.946Z,100101.25
2023-05-11T21:34:32.854Z,100103.22
2023-05-11T21:36:59.824Z,100110.75
2023-05-11T21:39:27.843Z,100105.97
2023-05-11T21:41:56.774Z,100105.56
2023-05-11T21:44:23.702Z,100111.41
2023-05-11T21:46:50.777Z,100113.69
2023-05-11T21:49:17.708Z,100108.47
2023-05-11T21:51:44.798Z,100108.59
2023-05-11T21:54:14.972Z,100109.75
2023-05-11T21:56:42.870Z,100108.75
2023-05-11T21:59:09.794Z,100112.81
2023-05-11T22:01:36.716Z,100107.13
2023-05-11T22:04:03.884Z,100102.66
2023-05-11T22:06:30.856Z,100097.19
2023-05-11T22:08:57.738Z,100100.06
2023-05-11T22:11:24.633Z,100097.69
2023-05-11T22:13:53.529Z,100102.75
2023-05-11T22:16:20.586Z,100103.59
2023-05-11T22:18:47.513Z,100099.69
2023-05-11T22:21:14.610Z,100100.50
2023-05-11T22:23:43.667Z,100101.00
2023-05-11T22:26:10.789Z,100100.34
2023-05-11T22:28:37.696Z,100096.41
2023-05-11T22:31:04.667Z,100100.34
2023-05-11T22:33:31.786Z,100103.59
2023-05-11T22:35:58.688Z,100104.59
2023-05-11T22:38:25.553Z,100098.88
2023-05-11T22:40:52.517Z,100104.56
2023-05-11T22:43:19.478Z,100107.53
2023-05-11T22:45:46.475Z,100105.69
2023-05-11T22:48:13.918Z,100107.47
2023-05-11T22:50:46.642Z,100106.47
2023-05-11T22:53:14.749Z,100109.59
2023-05-11T22:55:42.192Z,100107.00
2023-05-11T22:58:09.117Z,100101.94
2023-05-11T23:00:37.276Z,100104.88
2023-05-11T23:03:04.634Z,100107.84
2023-05-11T23:05:32.011Z,100107.19
2023-05-11T23:08:01.990Z,100104.41
2023-05-11T23:10:29.194Z,100101.50
2023-05-11T23:12:58.427Z,100106.06
2023-05-11T23:15:27.351Z,100102.94
2023-05-11T23:17:54.370Z,100105.25
2023-05-11T23:20:21.644Z,100114.38
2023-05-11T23:22:48.730Z,100104.56
2023-05-11T23:25:15.892Z,100107.03
2023-05-11T23:27:42.884Z,100106.19
2023-05-11T23:30:10.206Z,100109.81
2023-05-11T23:32:37.188Z,100099.00
2023-05-11T23:35:04.603Z,100091.19
2023-05-11T23:37:31.567Z,100097.38
2023-05-11T23:40:00.698Z,100095.38
2023-05-11T23:42:28.060Z,100100.34
2023-05-11T23:44:55.131Z,100093.53
2023-05-11T23:47:22.104Z,100094.81
2023-05-11T23:49:49.306Z,100091.44
2023-05-11T23:52:17.268Z,100092.38
2023-05-11T23:54:46.239Z,100089.59
2023-05-11T23:57:16.341Z,100087.84
2023-05-11T23:59:43.354Z,100080.31
